createdAt,value
2023-05-14T00:00:27.572Z,101115.31
2023-05-14T00:02:54.566Z,101116.28
2023-05-14T00:05:22.729Z,101119.09
2023-05-14T00:07:49.400Z,101112.47
2023-05-14T00:10:16.003Z,101101.84
2023-05-14T00:12:42.653Z,101116.19
2023-05-14T00:15:10.082Z,101108.91
2023-05-14T00:17:37.117Z,101107.97
2023-05-14T00:20:04.803Z,101113.66
2023-05-14T00:22:32.778Z,101113.22
2023-05-14T00:24:59.340Z,101117.97
2023-05-14T00:27:26.058Z,101113.03
2023-05-14T00:29:52.868Z,101117.66
2023-05-14T00:32:19.545Z,101112.63
2023-05-14T00:34:46.075Z,101109.16
2023-05-14T00:37:13.003Z,101100.84
2023-05-14T00:39:41.049Z,101115.25
2023-05-14T00:42:07.811Z,101113.03
2023-05-14T00:44:34.853Z,101106.50
2023-05-14T00:47:01.890Z,101108.41
2023-05-14T00:49:28.952Z,101106.59
2023-05-14T00:51:56.048Z,101100.59
2023-05-14T00:54:22.887Z,101106.00
2023-05-14T00:56:51.115Z,101090.09
2023-05-14T00:59:17.654Z,101081.91
2023-05-14T01:01:44.331Z,101101.97
2023-05-14T01:04:12.109Z,101097.84
2023-05-14T01:06:54.410Z,101097.13
2023-05-14T01:09:32.307Z,101095.56
2023-05-14T01:12:08.128Z,101083.84
2023-05-14T01:14:41.941Z,101090.59
2023-05-14T01:17:11.671Z,101088.31
2023-05-14T01:19:40.964Z,101079.56
2023-05-14T01:22:09.241Z,101094.25
2023-05-14T01:24:35.973Z,101100.34
2023-05-14T01:27:10.309Z,101091.00
2023-05-14T01:29:40.716Z,101084.38
2023-05-14T01:32:09.000Z,101088.13
2023-05-14T01:34:36.652Z,101088.97
2023-05-14T01:37:05.377Z,101090.03
2023-05-14T01:39:33.850Z,101087.59
2023-05-14T01:42:01.202Z,101084.63
2023-05-14T01:44:28.044Z,101089.69
2023-05-14T01:46:54.693Z,101071.06
2023-05-14T01:49:21.342Z,101095.03
2023-05-14T01:51:48.081Z,101090.16
2023-05-14T01:54:14.595Z,101053.78
2023-05-14T01:56:42.542Z,101085.41
2023-05-14T01:59:09.115Z,101083.00
2023-05-14T02:01:36.222Z,101084.03
2023-05-14T02:04:03.316Z,101079.09
2023-05-14T02:06:29.994Z,101072.28
2023-05-14T02:08:56.519Z,101071.59
2023-05-14T02:11:23.174Z,101074.31
2023-05-14T02:13:51.107Z,101076.22
2023-05-14T02:16:17.768Z,101073.69
2023-05-14T02:18:44.327Z,101069.47
2023-05-14T02:21:11.045Z,101072.31
2023-05-14T02:23:42.030Z,101058.19
2023-05-14T02:26:09.616Z,101063.16
2023-05-14T02:28:36.350Z,101067.94
2023-05-14T02:31:04.466Z,101061.31
2023-05-14T02:33:31.054Z,101068.03
2023-05-14T02:35:57.713Z,101061.94
2023-05-14T02:38:24.258Z,101064.00
2023-05-14T02:40:50.894Z,101055.59
2023-05-14T02:43:17.463Z,101057.59
2023-05-14T02:45:44.165Z,101061.03
2023-05-14T02:48:12.221Z,101025.47
2023-05-14T02:50:39.079Z,101059.63
2023-05-14T02:53:05.662Z,101055.13
2023-05-14T02:55:32.411Z,101047.88
2023-05-14T02:57:58.992Z,101058.25
2023-05-14T03:00:25.943Z,101042.72
2023-05-14T03:02:53.175Z,101048.03
2023-05-14T03:05:22.119Z,101051.81
2023-05-14T03:07:49.956Z,101052.06
2023-05-14T03:10:16.848Z,101047.97
2023-05-14T03:12:43.687Z,101042.94
2023-05-14T03:15:11.498Z,101050.69
2023-05-14T03:17:38.067Z,101047.13
2023-05-14T03:20:05.556Z,101032.38
2023-05-14T03:22:33.499Z,101047.50
2023-05-14T03:25:00.134Z,101039.63
2023-05-14T03:27:26.718Z,101049.88
2023-05-14T03:29:53.377Z,101043.09
2023-05-14T03:32:20.031Z,101045.25
2023-05-14T03:34:47.029Z,101051.25
2023-05-14T03:37:13.660Z,101049.19
2023-05-14T03:39:41.711Z,101044.78
2023-05-14T03:42:08.261Z,101042.56
2023-05-14T03:44:34.858Z,101040.50
2023-05-14T03:47:01.438Z,101049.94
2023-05-14T03:49:28.204Z,101045.84
2023-05-14T03:51:55.576Z,101047.78
2023-05-14T03:54:22.190Z,101035.72
2023-05-14T03:56:50.107Z,101043.47
2023-05-14T03:59:16.762Z,101037.47
2023-05-14T04:01:43.691Z,101047.13
2023-05-14T04:04:10.467Z,101036.81
2023-05-14T04:06:37.189Z,101026.69
2023-05-14T04:09:03.965Z,101044.50
2023-05-14T04:11:30.564Z,101034.09
2023-05-14T04:13:58.600Z,101045.59
2023-05-14T04:16:25.205Z,101046.56
2023-05-14T04:18:51.982Z,101030.38
2023-05-14T04:21:18.553Z,100995.09
2023-05-14T04:23:45.343Z,101040.09
2023-05-14T04:26:12.012Z,101046.63
2023-05-14T04:28:38.668Z,101044.31
2023-05-14T04:31:06.616Z,101037.91
2023-05-14T04:33:33.232Z,101040.78
2023-05-14T04:35:59.803Z,101039.47
2023-05-14T04:38:26.365Z,101041.53
2023-05-14T04:40:53.018Z,101045.31
2023-05-14T04:43:19.662Z,101040.56
2023-05-14T04:45:46.241Z,101046.25
2023-05-14T04:48:14.246Z,101052.34
2023-05-14T04:50:40.802Z,101055.09
2023-05-14T04:53:07.369Z,101048.25
2023-05-14T04:55:34.188Z,101052.06
2023-05-14T04:58:00.857Z,101045.00
2023-05-14T05:00:27.467Z,101056.34
2023-05-14T05:02:54.434Z,101050.47
2023-05-14T05:05:22.834Z,101029.66
2023-05-14T05:07:49.729Z,101058.34
2023-05-14T05:10:16.438Z,101047.00
2023-05-14T05:12:43.071Z,101056.88
2023-05-14T05:15:09.891Z,101054.13
2023-05-14T05:17:36.609Z,101056.56
2023-05-14T05:20:03.548Z,101046.91
2023-05-14T05:22:31.533Z,101056.88
2023-05-14T05:24:58.063Z,101060.88
2023-05-14T05:27:24.819Z,101059.09
2023-05-14T05:29:51.346Z,101065.38
2023-05-14T05:32:17.967Z,101070.41
2023-05-14T05:34:44.522Z,101068.94
2023-05-14T05:37:11.116Z,101069.44
2023-05-14T05:39:39.063Z,101071.91
2023-05-14T05:42:06.649Z,101060.00
2023-05-14T05:44:33.189Z,101058.91
2023-05-14T05:46:59.894Z,101059.97
2023-05-14T05:49:26.463Z,101064.66
2023-05-14T05:51:53.032Z,101047.25
2023-05-14T05:54:19.571Z,101042.50
2023-05-14T05:56:47.556Z,101052.63
2023-05-14T05:59:14.103Z,101060.66
2023-05-14T06:01:40.780Z,101056.63
2023-05-14T06:04:07.305Z,101048.06
2023-05-14T06:06:33.947Z,101048.09
2023-05-14T06:09:00.627Z,100999.53
2023-05-14T06:11:27.800Z,101051.63
2023-05-14T06:13:55.704Z,101052.47
2023-05-14T06:16:22.440Z,101049.63
2023-05-14T06:18:49.096Z,101058.16
2023-05-14T06:21:15.681Z,101054.78
2023-05-14T06:23:42.238Z,101052.28
2023-05-14T06:26:08.839Z,101050.72
2023-05-14T06:28:35.384Z,101047.97
2023-05-14T06:31:03.533Z,101049.44
2023-05-14T06:33:30.051Z,101054.78
2023-05-14T06:35:58.927Z,101046.63
2023-05-14T06:38:25.486Z,101044.06
2023-05-14T06:40:52.221Z,101048.78
2023-05-14T06:43:18.946Z,101040.00
2023-05-14T06:45:48.674Z,101043.66
2023-05-14T06:48:16.819Z,101043.19
2023-05-14T06:50:43.541Z,101040.09
2023-05-14T06:53:10.292Z,101033.50
2023-05-14T06:55:37.095Z,101033.22
2023-05-14T06:58:03.727Z,101030.59
2023-05-14T07:00:30.268Z,101025.63
2023-05-14T07:02:56.795Z,101027.72
2023-05-14T07:05:25.096Z,101022.00
2023-05-14T07:07:51.668Z,101031.63
2023-05-14T07:10:18.226Z,101028.09
2023-05-14T07:12:44.792Z,101037.91
2023-05-14T07:15:11.731Z,101025.16
2023-05-14T07:17:38.293Z,101043.34
2023-05-14T07:20:06.100Z,101044.72
2023-05-14T07:22:34.048Z,101036.69
2023-05-14T07:25:00.560Z,101036.81
2023-05-14T07:27:27.107Z,101030.59
2023-05-14T07:29:53.684Z,101033.38
2023-05-14T07:32:20.199Z,101019.69
2023-05-14T07:34:46.752Z,101021.81
2023-05-14T07:37:13.299Z,101022.38
2023-05-14T07:39:41.154Z,101022.72
2023-05-14T07:42:07.724Z,101009.31
2023-05-14T07:44:34.361Z,101017.94
2023-05-14T07:47:00.936Z,101019.28
2023-05-14T07:49:27.528Z,101008.31
2023-05-14T07:51:54.067Z,101001.56
2023-05-14T07:54:20.606Z,101012.66
2023-05-14T07:56:48.465Z,100998.50
2023-05-14T07:59:15.055Z,101004.16
2023-05-14T08:01:41.643Z,100971.06
2023-05-14T08:04:08.423Z,100993.06
2023-05-14T08:06:35.053Z,101003.03
2023-05-14T08:09:01.591Z,101000.13
2023-05-14T08:11:28.122Z,100994.09
2023-05-14T08:13:56.118Z,100999.00
2023-05-14T08:16:25.571Z,100997.41
2023-05-14T08:18:52.451Z,100958.75
2023-05-14T08:21:19.064Z,100990.63
2023-05-14T08:23:45.620Z,100997.16
2023-05-14T08:26:12.185Z,100993.41
2023-05-14T08:28:38.769Z,100990.97
2023-05-14T08:31:06.739Z,100995.53
2023-05-14T08:33:33.324Z,100990.22
2023-05-14T08:36:00.000Z,100990.59
2023-05-14T08:38:27.012Z,100964.94
2023-05-14T08:40:56.869Z,100982.78
2023-05-14T08:43:27.114Z,100975.00
2023-05-14T08:45:57.943Z,100975.53
2023-05-14T08:48:29.094Z,100973.06
2023-05-14T08:50:56.164Z,100969.72
2023-05-14T08:53:22.737Z,100967.38
2023-05-14T08:55:50.820Z,100972.03
2023-05-14T08:58:17.446Z,100974.03
2023-05-14T09:00:44.119Z,100947.69
2023-05-14T09:03:11.960Z,100965.66
2023-05-14T09:05:41.117Z,100962.47
2023-05-14T09:08:07.637Z,100961.97
2023-05-14T09:10:34.200Z,100962.28
2023-05-14T09:13:00.752Z,100959.53
2023-05-14T09:15:29.030Z,100914.19
2023-05-14T09:17:56.496Z,100959.81
2023-05-14T09:20:24.818Z,100955.31
2023-05-14T09:22:54.335Z,100951.06
2023-05-14T09:25:26.917Z,100952.63
2023-05-14T09:27:53.532Z,100938.94
2023-05-14T09:30:20.066Z,100947.06
2023-05-14T09:32:46.919Z,100941.38
2023-05-14T09:35:15.540Z,100938.94
2023-05-14T09:37:46.153Z,100938.00
2023-05-14T09:40:15.454Z,100946.34
2023-05-14T09:42:42.279Z,100941.09
2023-05-14T09:45:09.688Z,100938.44
2023-05-14T09:47:36.626Z,100935.47
2023-05-14T09:50:03.828Z,100936.31
2023-05-14T09:52:30.417Z,100917.41
2023-05-14T09:54:57.181Z,100935.19
2023-05-14T09:57:25.063Z,100936.63
2023-05-14T09:59:51.613Z,100919.78
2023-05-14T10:02:23.638Z,100917.63
2023-05-14T10:04:50.912Z,100908.19
2023-05-14T10:07:21.636Z,100894.66
2023-05-14T10:09:48.761Z,100904.50
2023-05-14T10:12:19.842Z,100895.88
2023-05-14T10:14:50.338Z,100903.34
2023-05-14T10:17:19.430Z,100901.44
2023-05-14T10:19:52.456Z,100905.56
2023-05-14T10:22:23.136Z,100912.59
2023-05-14T10:24:50.747Z,100899.00
2023-05-14T10:27:17.855Z,100891.28
2023-05-14T10:29:52.965Z,100894.84
2023-05-14T10:32:20.753Z,100889.16
2023-05-14T10:34:47.369Z,100891.00
2023-05-14T10:37:15.545Z,100884.50
2023-05-14T10:39:43.743Z,100889.41
2023-05-14T10:42:12.255Z,100860.34
2023-05-14T10:44:45.167Z,100881.88
2023-05-14T10:47:14.225Z,100874.88
2023-05-14T10:49:43.811Z,100874.38
2023-05-14T10:52:11.866Z,100865.38
2023-05-14T10:54:38.642Z,100849.91
2023-05-14T10:57:11.493Z,100865.13
2023-05-14T10:59:41.791Z,100857.91
2023-05-14T11:02:19.082Z,100858.47
2023-05-14T11:04:56.098Z,100861.78
2023-05-14T11:07:25.044Z,100847.28
2023-05-14T11:09:51.600Z,100863.53
2023-05-14T11:12:18.400Z,100848.59
2023-05-14T11:14:45.015Z,100839.47
2023-05-14T11:17:12.042Z,100850.63
2023-05-14T11:19:43.519Z,100851.06
2023-05-14T11:22:09.980Z,100845.66
2023-05-14T11:24:36.591Z,100847.91
2023-05-14T11:27:04.848Z,100848.53
2023-05-14T11:29:31.566Z,100842.75
2023-05-14T11:31:58.285Z,100789.25
2023-05-14T11:34:25.390Z,100833.84
2023-05-14T11:36:53.391Z,100847.53
2023-05-14T11:39:19.964Z,100850.00
2023-05-14T11:41:46.639Z,100820.34
2023-05-14T11:44:13.332Z,100831.97
2023-05-14T11:46:40.051Z,100835.47
2023-05-14T11:49:06.953Z,100820.56
2023-05-14T11:51:33.582Z,100833.41
2023-05-14T11:54:01.589Z,100829.50
2023-05-14T11:56:28.513Z,100826.97
2023-05-14T11:58:56.967Z,100820.13
2023-05-14T12:01:23.753Z,100820.97
2023-05-14T12:03:51.265Z,100825.38
2023-05-14T12:06:18.249Z,100821.63
2023-05-14T12:08:47.581Z,100827.03
2023-05-14T12:11:20.835Z,100826.69
2023-05-14T12:13:47.456Z,100806.09
2023-05-14T12:16:14.094Z,100818.78
2023-05-14T12:18:40.907Z,100820.16
2023-05-14T12:21:07.534Z,100801.63
2023-05-14T12:23:34.291Z,100813.38
2023-05-14T12:26:04.332Z,100804.91
2023-05-14T12:28:33.848Z,100798.91
2023-05-14T12:31:02.196Z,100782.75
2023-05-14T12:33:29.080Z,100784.31
2023-05-14T12:35:55.725Z,100768.53
2023-05-14T12:38:22.285Z,100780.09
2023-05-14T12:40:48.949Z,100772.75
2023-05-14T12:43:15.499Z,100763.59
2023-05-14T12:45:43.466Z,100761.59
2023-05-14T12:48:10.094Z,100772.25
2023-05-14T12:50:36.846Z,100764.53
2023-05-14T12:53:03.483Z,100764.31
2023-05-14T12:55:30.306Z,100736.78
2023-05-14T12:57:56.976Z,100763.41
2023-05-14T13:00:23.771Z,100762.19
2023-05-14T13:02:51.898Z,100754.09
2023-05-14T13:05:18.483Z,100753.44
2023-05-14T13:07:45.056Z,100735.94
2023-05-14T13:10:12.030Z,100749.34
2023-05-14T13:12:38.678Z,100728.28
2023-05-14T13:15:06.233Z,100748.41
2023-05-14T13:17:32.926Z,100745.03
2023-05-14T13:20:00.906Z,100745.28
2023-05-14T13:22:27.587Z,100743.59
2023-05-14T13:24:54.209Z,100736.03
2023-05-14T13:27:20.882Z,100730.97
2023-05-14T13:29:47.466Z,100719.84
2023-05-14T13:32:13.989Z,100737.50
2023-05-14T13:34:40.595Z,100730.91
2023-05-14T13:37:08.542Z,100720.66
2023-05-14T13:39:35.216Z,100722.94
2023-05-14T13:42:01.768Z,100713.25
2023-05-14T13:44:28.596Z,100711.25
2023-05-14T13:46:55.256Z,100711.84
2023-05-14T13:49:21.900Z,100713.84
2023-05-14T13:51:48.463Z,100700.41
2023-05-14T13:54:16.477Z,100706.13
2023-05-14T13:56:43.084Z,100683.19
2023-05-14T13:59:09.761Z,100691.56
2023-05-14T14:01:36.460Z,100702.28
2023-05-14T14:04:03.216Z,100666.00
2023-05-14T14:06:31.229Z,100682.03
2023-05-14T14:08:57.948Z,100699.81
2023-05-14T14:11:25.895Z,100698.28
2023-05-14T14:13:52.884Z,100681.09
2023-05-14T14:16:19.472Z,100665.44
2023-05-14T14:18:46.214Z,100672.88
2023-05-14T14:21:12.870Z,100674.31
2023-05-14T14:23:39.738Z,100665.03
2023-05-14T14:26:06.628Z,100670.88
2023-05-14T14:28:34.578Z,100669.34
2023-05-14T14:31:01.135Z,100660.50
2023-05-14T14:33:28.175Z,100659.69
2023-05-14T14:35:54.744Z,100648.28
2023-05-14T14:38:21.380Z,100644.03
2023-05-14T14:40:47.928Z,100648.78
2023-05-14T14:43:14.796Z,100651.56
2023-05-14T14:45:42.792Z,100643.47
2023-05-14T14:48:28.709Z,100644.09
2023-05-14T14:50:55.464Z,100641.84
2023-05-14T14:53:22.623Z,100638.88
2023-05-14T14:55:49.443Z,100645.84
2023-05-14T14:58:16.376Z,100635.19
2023-05-14T15:00:44.539Z,100636.25
2023-05-14T15:03:11.990Z,100636.25
2023-05-14T15:05:40.365Z,100633.19
2023-05-14T15:08:06.912Z,100635.44
2023-05-14T15:10:33.598Z,100637.16
2023-05-14T15:13:00.189Z,100643.19
2023-05-14T15:15:26.767Z,100643.53
2023-05-14T15:17:54.686Z,100612.16
2023-05-14T15:20:21.329Z,100647.22
2023-05-14T15:22:47.963Z,100647.69
2023-05-14T15:25:14.599Z,100652.03
2023-05-14T15:27:41.179Z,100643.41
2023-05-14T15:30:08.952Z,100640.34
2023-05-14T15:32:35.585Z,100641.53
2023-05-14T15:35:03.819Z,100637.06
2023-05-14T15:37:36.468Z,100636.13
2023-05-14T15:40:03.795Z,100631.09
2023-05-14T15:42:30.369Z,100633.53
2023-05-14T15:44:57.036Z,100632.25
2023-05-14T15:47:23.584Z,100637.56
2023-05-14T15:49:50.247Z,100629.22
2023-05-14T15:52:18.170Z,100624.03
2023-05-14T15:54:46.748Z,100620.84
2023-05-14T15:57:13.724Z,100605.97
2023-05-14T15:59:40.397Z,100610.84
2023-05-14T16:02:07.213Z,100610.50
2023-05-14T16:04:34.120Z,100602.72
2023-05-14T16:07:01.748Z,100602.81
2023-05-14T16:09:29.974Z,100605.84
2023-05-14T16:11:56.665Z,100605.28
2023-05-14T16:14:23.356Z,100606.06
2023-05-14T16:16:50.188Z,100601.06
2023-05-14T16:19:17.061Z,100591.94
2023-05-14T16:21:43.831Z,100602.44
2023-05-14T16:24:10.635Z,100602.53
2023-05-14T16:26:38.650Z,100600.47
2023-05-14T16:29:05.487Z,100602.19
2023-05-14T16:31:32.391Z,100609.66
2023-05-14T16:33:59.165Z,100606.72
2023-05-14T16:36:27.195Z,100612.22
2023-05-14T16:39:06.643Z,100604.28
2023-05-14T16:41:34.337Z,100599.44
2023-05-14T16:44:02.511Z,100607.72
2023-05-14T16:46:29.554Z,100615.19
2023-05-14T16:48:56.257Z,100608.00
2023-05-14T16:51:22.849Z,100611.44
2023-05-14T16:53:49.391Z,100611.78
2023-05-14T16:56:16.156Z,100615.75
2023-05-14T16:58:42.987Z,100616.72
2023-05-14T17:01:11.040Z,100621.50
2023-05-14T17:03:37.621Z,100612.38
2023-05-14T17:06:04.541Z,100618.41
2023-05-14T17:08:31.084Z,100617.22
2023-05-14T17:10:57.634Z,100610.94
2023-05-14T17:13:24.206Z,100603.56
2023-05-14T17:15:50.880Z,100605.78
2023-05-14T17:18:18.862Z,100618.59
2023-05-14T17:20:45.545Z,100614.78
2023-05-14T17:23:12.236Z,100615.31
2023-05-14T17:25:38.855Z,100615.84
2023-05-14T17:28:05.410Z,100609.25
2023-05-14T17:30:31.967Z,100614.19
2023-05-14T17:32:58.606Z,100616.66
2023-05-14T17:35:27.008Z,100608.03
2023-05-14T17:37:53.730Z,100610.28
2023-05-14T17:40:20.292Z,100620.38
2023-05-14T17:42:46.898Z,100620.00
2023-05-14T17:45:13.622Z,100622.63
2023-05-14T17:47:40.180Z,100619.69
2023-05-14T17:50:08.136Z,100627.84
2023-05-14T17:52:36.259Z,100623.78
2023-05-14T17:55:03.094Z,100620.72
2023-05-14T17:57:29.689Z,100623.97
2023-05-14T17:59:56.237Z,100627.19
2023-05-14T18:02:22.766Z,100626.84
2023-05-14T18:04:49.532Z,100632.53
2023-05-14T18:07:16.323Z,100631.81
2023-05-14T18:09:44.326Z,100634.97
2023-05-14T18:12:10.863Z,100632.34
2023-05-14T18:14:37.474Z,100631.31
2023-05-14T18:17:04.386Z,100637.94
2023-05-14T18:19:31.423Z,100628.81
2023-05-14T18:21:57.953Z,100645.19
2023-05-14T18:24:24.664Z,100635.63
2023-05-14T18:26:52.703Z,100645.78
2023-05-14T18:29:19.295Z,100650.28
2023-05-14T18:31:45.876Z,100614.00
2023-05-14T18:34:12.514Z,100649.56
2023-05-14T18:36:39.098Z,100652.38
2023-05-14T18:39:05.632Z,100654.53
2023-05-14T18:41:32.159Z,100656.22
2023-05-14T18:44:00.246Z,100650.09
2023-05-14T18:46:27.130Z,100622.81
2023-05-14T18:48:53.821Z,100663.50
2023-05-14T18:51:20.518Z,100673.31
2023-05-14T18:53:47.142Z,100678.63
2023-05-14T18:56:13.749Z,100666.41
2023-05-14T18:58:40.392Z,100680.22
2023-05-14T19:01:08.322Z,100669.91
2023-05-14T19:03:35.067Z,100686.59
2023-05-14T19:06:01.717Z,100688.84
2023-05-14T19:08:28.306Z,100686.41
2023-05-14T19:10:55.537Z,100695.16
2023-05-14T19:13:22.167Z,100704.13
2023-05-14T19:15:48.752Z,100689.97
2023-05-14T19:18:16.871Z,100702.88
2023-05-14T19:20:43.364Z,100710.44
2023-05-14T19:23:10.064Z,100709.81
2023-05-14T19:25:36.758Z,100711.34
2023-05-14T19:31:49.615Z,100722.47
2023-05-14T19:34:17.485Z,100724.53
2023-05-14T19:36:44.051Z,100715.44
2023-05-14T19:39:10.628Z,100722.97
2023-05-14T19:41:37.152Z,100686.56
2023-05-14T19:44:03.660Z,100722.66
2023-05-14T19:46:30.329Z,100720.69
2023-05-14T19:48:56.835Z,100726.38
2023-05-14T19:51:24.902Z,100720.41
2023-05-14T19:53:51.434Z,100726.56
2023-05-14T19:56:18.755Z,100720.38
2023-05-14T19:58:45.340Z,100717.25
2023-05-14T20:01:12.055Z,100713.09
2023-05-14T20:03:38.798Z,100715.94
2023-05-14T20:06:05.720Z,100714.63
2023-05-14T20:08:33.598Z,100719.78
2023-05-14T20:11:00.293Z,100715.13
2023-05-14T20:13:26.799Z,100719.31
2023-05-14T20:15:53.398Z,100707.66
2023-05-14T20:18:19.912Z,100705.81
2023-05-14T20:20:46.515Z,100712.47
2023-05-14T20:23:13.311Z,100710.13
2023-05-14T20:25:41.259Z,100704.47
2023-05-14T20:28:07.809Z,100699.81
2023-05-14T20:30:34.482Z,100699.31
2023-05-14T20:33:01.071Z,100705.16
2023-05-14T20:35:27.795Z,100700.13
2023-05-14T20:37:54.439Z,100700.94
2023-05-14T20:40:21.707Z,100697.06
2023-05-14T20:42:49.556Z,100693.44
2023-05-14T20:45:16.241Z,100690.75
2023-05-14T20:47:42.797Z,100689.41
2023-05-14T20:50:09.876Z,100695.19
2023-05-14T20:52:36.471Z,100696.19
2023-05-14T20:55:03.326Z,100688.97
2023-05-14T20:57:29.891Z,100658.13
2023-05-14T20:59:58.963Z,100691.88
2023-05-14T21:02:25.691Z,100691.00
2023-05-14T21:04:52.473Z,100692.78
2023-05-14T21:07:19.079Z,100667.38
2023-05-14T21:09:45.692Z,100693.69
2023-05-14T21:12:12.318Z,100689.53
2023-05-14T21:14:38.943Z,100696.16
2023-05-14T21:17:06.897Z,100693.44
2023-05-14T21:19:33.545Z,100686.03
2023-05-14T21:22:00.136Z,100690.66
2023-05-14T21:24:26.694Z,100686.13
2023-05-14T21:26:53.735Z,100688.25
2023-05-14T21:29:20.534Z,100685.38
2023-05-14T21:31:47.795Z,100689.47
2023-05-14T21:34:15.772Z,100688.50
2023-05-14T21:36:42.405Z,100690.09
2023-05-14T21:39:09.180Z,100691.81
2023-05-14T21:41:35.745Z,100695.91
2023-05-14T21:44:02.319Z,100695.22
2023-05-14T21:46:28.964Z,100693.88
2023-05-14T21:48:55.680Z,100691.22
2023-05-14T21:51:24.083Z,100691.34
2023-05-14T21:53:50.681Z,100696.28
2023-05-14T21:56:17.200Z,100683.47
2023-05-14T21:58:44.607Z,100682.09
2023-05-14T22:01:11.211Z,100673.75
2023-05-14T22:03:37.991Z,100681.25
2023-05-14T22:06:05.752Z,100681.56
2023-05-14T22:08:33.738Z,100687.00
2023-05-14T22:11:00.289Z,100664.78
2023-05-14T22:13:26.923Z,100674.53
2023-05-14T22:16:01.495Z,100673.22
2023-05-14T22:18:35.696Z,100696.88
2023-05-14T22:21:02.227Z,100689.75
2023-05-14T22:23:28.841Z,100662.09
2023-05-14T22:25:57.148Z,100687.28
2023-05-14T22:28:23.921Z,100689.69
2023-05-14T22:30:50.472Z,100689.44
2023-05-14T22:33:17.066Z,100684.84
2023-05-14T22:35:43.597Z,100681.47
2023-05-14T22:38:10.208Z,100676.91
2023-05-14T22:40:36.714Z,100679.16
2023-05-14T22:43:04.719Z,100679.16
2023-05-14T22:45:31.253Z,100678.78
2023-05-14T22:47:58.376Z,100677.81
2023-05-14T22:50:25.888Z,100667.81
2023-05-14T22:52:52.613Z,100669.50
2023-05-14T22:55:19.327Z,100672.31
2023-05-14T22:57:45.918Z,100671.22
2023-05-14T23:00:14.659Z,100678.59
2023-05-14T23:02:41.283Z,100669.03
2023-05-14T23:05:08.681Z,100663.72
2023-05-14T23:07:35.348Z,100659.97
2023-05-14T23:10:02.036Z,100660.38
2023-05-14T23:12:28.914Z,100660.38
2023-05-14T23:14:55.473Z,100650.63
2023-05-14T23:17:23.569Z,100647.13
2023-05-14T23:19:50.209Z,100651.59
2023-05-14T23:22:16.865Z,100624.47
2023-05-14T23:24:43.437Z,100636.69
2023-05-14T23:27:10.820Z,100594.31
2023-05-14T23:29:37.379Z,100642.97
2023-05-14T23:32:04.296Z,100639.78
2023-05-14T23:34:32.937Z,100641.72
2023-05-14T23:36:59.602Z,100631.28
2023-05-14T23:39:26.656Z,100629.50
2023-05-14T23:41:53.264Z,100634.50
2023-05-14T23:44:19.772Z,100637.56
2023-05-14T23:46:46.456Z,100624.91
2023-05-14T23:49:13.069Z,100626.19
2023-05-14T23:51:41.288Z,100624.66
2023-05-14T23:54:07.847Z,100632.19
2023-05-14T23:56:35.680Z,100622.72
2023-05-14T23:59:02.236Z,100620.66
